Time;durP1;ratioP1;P1;durP2;ratioP2;P2;SDS_P1;SDS_P2;PMS_P1;PMS_P2;Temp;Humidity;BMP_temperature;BMP_pressure;BME280_temperature;BME280_humidity;BME280_pressure;Samples;Min_cycle;Max_cycle;Signal;HPM_P1;HPM_P2
2023/12/15 00:00:52;;;;;;;39.70;20.85;;;;;;;-146.25;100.00;52658.16;2079553;28;33138;-77
2023/12/15 00:01:54;;;;;;;40.30;21.90;;;;;;;-146.25;100.00;52656.13;2080292;28;35271;-78
2023/12/15 00:03:02;;;;;;;41.13;21.20;;;;;;;-146.25;100.00;52668.28;2080687;28;20816;-78
2023/12/15 00:04:04;;;;;;;37.88;20.77;;;;;;;-146.25;100.00;52650.03;2080174;28;35706;-77
2023/12/15 00:05:09;;;;;;;40.08;20.45;;;;;;;-146.25;100.00;52680.47;2080021;28;35642;-78
2023/12/15 00:06:11;;;;;;;38.70;20.25;;;;;;;-146.25;100.00;52678.44;2080282;28;34286;-75
2023/12/15 00:07:17;;;;;;;36.08;20.50;;;;;;;-146.25;100.00;52688.56;2079634;28;34088;-77
2023/12/15 00:08:19;;;;;;;39.95;19.58;;;;;;;-146.25;100.00;52696.69;2080491;28;35376;-77
2023/12/15 00:09:23;;;;;;;40.50;21.17;;;;;;;-146.25;100.00;52684.50;2079880;28;36426;-78
2023/12/15 00:10:25;;;;;;;39.60;20.50;;;;;;;-146.25;100.00;52652.06;2080076;28;32335;-77
2023/12/15 00:11:27;;;;;;;41.40;20.90;;;;;;;-146.25;100.00;52692.63;2079741;28;35142;-77
2023/12/15 00:12:28;;;;;;;38.97;20.50;;;;;;;-146.25;100.00;52674.38;2080173;28;36048;-77
2023/12/15 00:13:30;;;;;;;35.08;19.98;;;;;;;-146.25;100.00;52652.06;2080187;28;32694;-78
2023/12/15 00:14:34;;;;;;;36.92;20.02;;;;;;;-146.25;100.00;52654.09;2079721;28;38461;-78
2023/12/15 00:15:36;;;;;;;42.00;21.80;;;;;;;-146.25;100.00;52678.44;2079924;28;33763;-78
2023/12/15 00:16:37;;;;;;;37.67;20.38;;;;;;;-146.25;100.00;52737.22;2079835;28;35958;-76
2023/12/15 00:17:39;;;;;;;36.83;20.80;;;;;;;-146.25;100.00;52676.41;2080046;28;37119;-76
2023/12/15 00:18:41;;;;;;;42.20;21.17;;;;;;;-146.25;100.00;52698.72;2080031;28;36402;-77
2023/12/15 00:19:44;;;;;;;38.85;20.88;;;;;;;-146.25;100.00;52674.38;2079359;28;37938;-74
2023/12/15 00:20:46;;;;;;;42.00;21.40;;;;;;;-146.25;100.00;52684.50;2080525;28;34876;-76
2023/12/15 00:21:48;;;;;;;38.63;21.27;;;;;;;-146.25;100.00;52676.41;2079592;28;36314;-77
2023/12/15 00:22:52;;;;;;;39.10;20.90;;;;;;;-146.25;100.00;52700.72;2080126;28;37520;-76
2023/12/15 00:23:55;;;;;;;38.17;20.52;;;;;;;-146.25;100.00;52666.25;2079838;28;32975;-77
2023/12/15 00:24:56;;;;;;;46.33;21.08;;;;;;;-146.25;100.00;52650.03;2079675;28;38240;-75
2023/12/15 00:26:01;;;;;;;47.00;22.35;;;;;;;-146.25;100.00;52696.69;2079657;28;34748;-76
2023/12/15 00:27:05;;;;;;;41.25;21.42;;;;;;;-146.25;100.00;52692.63;2079869;28;35346;-76
2023/12/15 00:28:07;;;;;;;38.95;21.00;;;;;;;-146.25;100.00;52696.69;2070977;28;35784;-75
2023/12/15 00:29:11;;;;;;;41.20;22.10;;;;;;;-146.25;100.00;52674.38;2072211;28;20188;-76
2023/12/15 00:30:13;;;;;;;41.83;21.88;;;;;;;-146.25;100.00;52680.47;2079799;28;34691;-78
2023/12/15 00:31:15;;;;;;;44.35;21.95;;;;;;;-146.25;100.00;52672.34;2079730;28;36401;-78
2023/12/15 00:32:17;;;;;;;43.33;21.25;;;;;;;-146.25;100.00;52696.69;2079807;28;37491;-78
2023/12/15 00:33:22;;;;;;;42.33;22.35;;;;;;;-146.25;100.00;52712.91;2079797;28;35694;-77
2023/12/15 00:34:24;;;;;;;45.78;22.83;;;;;;;-146.25;100.00;52700.72;2080706;28;20183;-77
2023/12/15 00:35:26;;;;;;;45.35;22.75;;;;;;;-146.25;100.00;52698.72;2080205;28;28855;-75
2023/12/15 00:36:27;;;;;;;43.75;22.25;;;;;;;-146.25;100.00;52678.44;2079694;28;33789;-78
2023/12/15 00:37:29;;;;;;;43.92;22.70;;;;;;;-146.25;100.00;52684.50;2080096;28;36430;-78
2023/12/15 00:38:31;;;;;;;46.05;22.83;;;;;;;-146.25;100.00;52678.44;2079609;28;36631;-78
2023/12/15 00:39:40;;;;;;;51.00;23.55;;;;;;;-146.25;100.00;52627.75;2079641;28;34031;-76
2023/12/15 00:40:42;;;;;;;49.67;23.67;;;;;;;-146.25;100.00;52648.00;2078685;28;35337;-78
2023/12/15 00:41:44;;;;;;;43.05;21.23;;;;;;;-146.25;100.00;52684.50;2079645;28;32549;-75
2023/12/15 00:42:45;;;;;;;41.30;21.63;;;;;;;-146.25;100.00;52670.31;2080448;28;35415;-77
2023/12/15 00:43:49;;;;;;;46.67;22.27;;;;;;;-146.25;100.00;52676.41;2079958;28;38286;-76
2023/12/15 00:44:51;;;;;;;41.83;22.33;;;;;;;-146.25;100.00;52658.16;2079854;28;35296;-77
2023/12/15 00:45:53;;;;;;;43.28;22.27;;;;;;;-146.25;100.00;52676.41;2079506;28;34420;-77
2023/12/15 00:46:57;;;;;;;47.67;22.88;;;;;;;-146.25;100.00;52684.50;2079240;28;38975;-77
2023/12/15 00:47:59;;;;;;;46.05;22.48;;;;;;;-146.25;100.00;52676.41;2079994;28;32549;-78
2023/12/15 00:49:01;;;;;;;45.38;22.50;;;;;;;-146.25;100.00;52658.16;2079889;28;37617;-78
2023/12/15 00:50:05;;;;;;;45.60;22.40;;;;;;;-146.25;100.00;52662.22;2079331;28;39642;-78
2023/12/15 00:51:09;;;;;;;45.08;23.17;;;;;;;-146.25;100.00;52648.00;2079712;28;35975;-77
2023/12/15 00:52:11;;;;;;;43.80;22.00;;;;;;;-146.25;100.00;52654.09;2079708;28;34238;-77
2023/12/15 00:53:15;;;;;;;47.42;22.95;;;;;;;-146.25;100.00;52672.34;2079477;28;37295;-77
2023/12/15 00:54:16;;;;;;;49.90;23.08;;;;;;;-146.25;100.00;52686.53;2079771;28;37089;-77
2023/12/15 00:55:18;;;;;;;46.28;22.45;;;;;;;-146.25;100.00;52712.91;2079224;28;34090;-77
2023/12/15 00:56:20;;;;;;;48.05;23.05;;;;;;;-146.25;100.00;52662.22;2079789;28;37978;-77
2023/12/15 00:57:22;;;;;;;51.40;23.88;;;;;;;-146.25;100.00;52662.22;2080461;28;20064;-77
2023/12/15 00:58:23;;;;;;;47.88;23.58;;;;;;;-146.25;100.00;52700.72;2080226;28;36329;-76
2023/12/15 00:59:26;;;;;;;47.28;23.23;;;;;;;-146.25;100.00;52650.03;2079570;28;33789;-77
2023/12/15 01:00:28;;;;;;;48.40;22.60;;;;;;;-146.25;100.00;52696.69;2078796;28;35894;-77
2023/12/15 01:01:30;;;;;;;48.28;23.75;;;;;;;-146.25;100.00;52635.84;2079719;28;36963;-77
2023/12/15 01:02:31;;;;;;;48.47;23.27;;;;;;;-146.25;100.00;52676.41;2079536;28;35715;-76
2023/12/15 01:03:33;;;;;;;45.47;22.25;;;;;;;-146.25;100.00;52668.28;2079943;28;33490;-78
2023/12/15 01:04:35;;;;;;;46.08;23.05;;;;;;;-146.25;100.00;52668.28;2080198;28;35605;-77
2023/12/15 01:05:39;;;;;;;45.58;23.20;;;;;;;-146.25;100.00;52684.50;2079421;28;33774;-77
2023/12/15 01:06:41;;;;;;;51.33;24.23;;;;;;;-146.25;100.00;52637.88;2079694;28;33892;-76
2023/12/15 01:07:44;;;;;;;51.33;23.77;;;;;;;-146.25;100.00;52716.97;2080390;28;20933;-76
2023/12/15 01:08:49;;;;;;;46.05;22.55;;;;;;;-146.25;100.00;52714.94;2079791;28;38021;-77
2023/12/15 01:09:50;;;;;;;51.75;24.77;;;;;;;-146.25;100.00;52674.38;2079741;28;33612;-77
2023/12/15 01:10:52;;;;;;;49.78;23.83;;;;;;;-146.25;100.00;52680.47;2079289;28;39434;-76
2023/12/15 01:11:54;;;;;;;53.75;23.23;;;;;;;-146.25;100.00;52672.34;2079956;28;28727;-77
2023/12/15 01:12:55;;;;;;;52.70;24.20;;;;;;;-146.25;100.00;52648.00;2079580;28;33743;-77
2023/12/15 01:13:57;;;;;;;50.78;23.42;;;;;;;-146.25;100.00;52668.28;2079561;28;38450;-78
2023/12/15 01:14:59;;;;;;;50.85;24.17;;;;;;;-146.25;100.00;52704.78;2079904;28;35569;-78
2023/12/15 01:16:05;;;;;;;45.80;22.77;;;;;;;-146.25;100.00;52625.72;2079939;28;32396;-77
2023/12/15 01:17:06;;;;;;;49.50;24.30;;;;;;;-146.25;100.00;52670.31;2079282;28;36734;-75
2023/12/15 01:18:08;;;;;;;47.63;23.77;;;;;;;-146.25;100.00;52692.63;2079440;28;34131;-77
2023/12/15 01:19:10;;;;;;;50.53;23.73;;;;;;;-146.25;100.00;52692.63;2079683;28;36081;-77
2023/12/15 01:20:13;;;;;;;54.40;24.70;;;;;;;-146.25;100.00;52652.06;2079586;28;35619;-77
2023/12/15 01:21:15;;;;;;;53.42;24.27;;;;;;;-146.25;100.00;52702.75;2078866;28;35041;-77
2023/12/15 01:22:17;;;;;;;50.42;23.35;;;;;;;-146.25;100.00;52688.56;2079067;28;32846;-78
2023/12/15 01:23:18;;;;;;;50.03;23.80;;;;;;;-146.25;100.00;52658.16;2079776;28;37510;-76
2023/12/15 01:24:20;;;;;;;47.47;23.52;;;;;;;-146.25;100.00;52680.47;2079594;28;33967;-78
2023/12/15 01:25:22;;;;;;;53.08;24.10;;;;;;;-146.25;100.00;52648.00;2079296;28;33696;-77
2023/12/15 01:26:24;;;;;;;52.22;24.35;;;;;;;-146.25;100.00;52676.41;2079492;28;38117;-76
2023/12/15 01:27:27;;;;;;;54.45;24.92;;;;;;;-146.25;100.00;52656.13;2080063;28;33503;-77
2023/12/15 01:28:28;;;;;;;53.97;25.10;;;;;;;-146.25;100.00;52641.94;2079972;28;20868;-77
2023/12/15 01:29:30;;;;;;;49.55;24.38;;;;;;;-146.25;100.00;52629.75;2079594;28;38797;-77
2023/12/15 01:30:32;;;;;;;49.25;23.98;;;;;;;-146.25;100.00;52682.47;2079704;28;33449;-77
2023/12/15 01:31:34;;;;;;;50.20;23.98;;;;;;;-146.25;100.00;52641.94;2080324;28;20041;-77
2023/12/15 01:32:35;;;;;;;51.80;24.73;;;;;;;-146.25;100.00;52639.91;2079559;28;37844;-77
2023/12/15 01:33:37;;;;;;;48.60;23.40;;;;;;;-146.25;100.00;52698.72;2079205;28;34849;-76
2023/12/15 01:34:39;;;;;;;53.38;24.50;;;;;;;-146.25;100.00;52682.47;2080292;28;20045;-77
2023/12/15 01:35:41;;;;;;;48.10;23.23;;;;;;;-146.25;100.00;52670.31;2079738;28;31851;-77
2023/12/15 01:36:43;;;;;;;53.38;25.95;;;;;;;-146.25;100.00;52674.38;2079493;28;37682;-77
2023/12/15 01:37:44;;;;;;;54.03;24.20;;;;;;;-146.25;100.00;52670.31;2080586;28;20188;-76
2023/12/15 01:38:48;;;;;;;49.25;23.88;;;;;;;-146.25;100.00;52712.91;2079351;28;38204;-77
2023/12/15 01:39:50;;;;;;;53.08;23.58;;;;;;;-146.25;100.00;52641.94;2079543;28;39151;-78
2023/12/15 01:40:52;;;;;;;52.45;24.48;;;;;;;-146.25;100.00;52678.44;2079643;28;20088;-77
2023/12/15 01:41:53;;;;;;;50.20;24.23;;;;;;;-146.25;100.00;52662.22;2079023;28;38811;-78
2023/12/15 01:43:00;;;;;;;51.83;23.83;;;;;;;-146.25;100.00;52623.69;2078886;28;35237;-77
2023/12/15 01:44:03;;;;;;;51.45;24.63;;;;;;;-146.25;100.00;52668.28;2080381;28;20022;-75
2023/12/15 01:45:06;;;;;;;52.55;24.80;;;;;;;-146.25;100.00;52656.13;2079097;28;39211;-77
2023/12/15 01:46:07;;;;;;;52.58;24.67;;;;;;;-146.25;100.00;52658.16;2079199;28;35786;-76
2023/12/15 01:47:17;;;;;;;56.92;25.15;;;;;;;-146.25;100.00;52692.63;2078956;28;36709;-78
2023/12/15 01:48:19;;;;;;;53.00;24.17;;;;;;;-146.25;100.00;52668.28;2079131;28;39160;-77
2023/12/15 01:49:21;;;;;;;50.03;23.77;;;;;;;-146.25;100.00;52666.25;2079309;28;34737;-78
2023/12/15 01:50:23;;;;;;;54.75;25.08;;;;;;;-146.25;100.00;52641.94;2079862;28;20127;-78
2023/12/15 01:51:27;;;;;;;51.05;23.77;;;;;;;-146.25;100.00;52641.94;2079505;28;39518;-77
2023/12/15 01:52:28;;;;;;;57.95;25.30;;;;;;;-146.25;100.00;52690.59;2079596;28;35041;-77
2023/12/15 01:53:31;;;;;;;54.67;25.17;;;;;;;-146.25;100.00;52660.19;2079482;28;34263;-78
2023/12/15 01:54:32;;;;;;;51.60;24.25;;;;;;;-146.25;100.00;52676.41;2079477;28;35683;-77
2023/12/15 01:55:34;;;;;;;55.33;24.83;;;;;;;-146.25;100.00;52674.38;2079559;28;20861;-77
2023/12/15 01:56:36;;;;;;;56.70;25.35;;;;;;;-146.25;100.00;52668.28;2079362;28;37452;-76
2023/12/15 01:57:38;;;;;;;58.90;25.95;;;;;;;-146.25;100.00;52656.13;2078991;28;34401;-77
2023/12/15 01:58:43;;;;;;;56.00;23.95;;;;;;;-146.25;100.00;52660.19;2080417;28;20169;-77
2023/12/15 01:59:49;;;;;;;56.60;25.10;;;;;;;-146.25;100.00;52706.81;2079535;28;32684;-77
2023/12/15 02:00:53;;;;;;;58.40;25.42;;;;;;;-146.25;100.00;52672.34;2079598;28;35710;-77
2023/12/15 02:01:55;;;;;;;59.50;25.35;;;;;;;-146.25;100.00;52678.44;2079212;28;35953;-77
2023/12/15 02:02:57;;;;;;;61.38;25.65;;;;;;;-146.25;100.00;52680.47;2079213;28;39231;-76
2023/12/15 02:03:58;;;;;;;55.25;24.63;;;;;;;-146.25;100.00;52702.75;2079861;28;20109;-78
2023/12/15 02:05:02;;;;;;;64.40;26.20;;;;;;;-146.25;100.00;52676.41;2079583;28;35900;-77
2023/12/15 02:06:04;;;;;;;58.85;25.75;;;;;;;-146.25;100.00;52660.19;2079418;28;37095;-76
2023/12/15 02:07:06;;;;;;;59.35;25.90;;;;;;;-146.25;100.00;52639.91;2080033;28;20046;-76
2023/12/15 02:08:07;;;;;;;57.40;25.63;;;;;;;-146.25;100.00;52654.09;2079460;28;37594;-78
2023/12/15 02:09:09;;;;;;;58.15;25.38;;;;;;;-146.25;100.00;52660.19;2079454;28;38838;-78
2023/12/15 02:10:11;;;;;;;65.45;27.60;;;;;;;-146.25;100.00;52684.50;2080107;28;20038;-77
2023/12/15 02:11:15;;;;;;;59.63;25.70;;;;;;;-146.25;100.00;52660.19;2079310;28;40545;-78
2023/12/15 02:12:17;;;;;;;61.05;27.80;;;;;;;-146.25;100.00;52629.75;2080369;28;34541;-78
2023/12/15 02:13:19;;;;;;;60.67;26.60;;;;;;;-146.25;100.00;52652.06;2081220;28;31567;-78
2023/12/15 02:14:20;;;;;;;58.88;25.90;;;;;;;-146.25;100.00;52690.59;2080570;28;39670;-77
2023/12/15 02:15:22;;;;;;;61.90;25.92;;;;;;;-146.25;100.00;52658.16;2080760;28;35856;-77
2023/12/15 02:16:24;;;;;;;64.07;27.10;;;;;;;-146.25;100.00;52670.31;2081616;28;20050;-77
2023/12/15 02:17:26;;;;;;;66.25;27.27;;;;;;;-146.25;100.00;52656.13;2081449;28;36709;-75
2023/12/15 02:18:28;;;;;;;65.72;26.63;;;;;;;-146.25;100.00;52666.25;2080482;28;33256;-78
2023/12/15 02:19:29;;;;;;;62.75;26.05;;;;;;;-146.25;100.00;52670.31;2080722;28;33453;-77
2023/12/15 02:20:31;;;;;;;61.08;27.80;;;;;;;-146.25;100.00;52700.72;2080270;28;37471;-77
2023/12/15 02:21:35;;;;;;;67.80;27.63;;;;;;;-146.25;100.00;52635.84;2080666;28;35891;-78
2023/12/15 02:22:40;;;;;;;60.95;26.70;;;;;;;-146.25;100.00;52692.63;2080873;28;20887;-78
2023/12/15 02:23:42;;;;;;;68.82;27.60;;;;;;;-146.25;100.00;52678.44;2071853;28;33924;-78
2023/12/15 02:24:44;;;;;;;62.22;26.38;;;;;;;-146.25;100.00;52648.00;2072780;28;20179;-77
2023/12/15 02:25:46;;;;;;;66.10;28.45;;;;;;;-146.25;100.00;52658.16;2080473;28;36135;-74
2023/12/15 02:26:48;;;;;;;63.28;26.50;;;;;;;-146.25;100.00;52676.41;2080545;28;37595;-78
2023/12/15 02:27:49;;;;;;;62.38;26.15;;;;;;;-146.25;100.00;52656.13;2080965;28;35985;-78
2023/12/15 02:28:51;;;;;;;65.88;27.67;;;;;;;-146.25;100.00;52668.28;2081243;28;20186;-78
2023/12/15 02:29:55;;;;;;;67.88;28.15;;;;;;;-146.25;100.00;52668.28;2080747;28;36550;-77
2023/12/15 02:30:57;;;;;;;68.60;27.67;;;;;;;-146.25;100.00;52682.47;2080749;28;31660;-77
2023/12/15 02:31:59;;;;;;;64.55;26.27;;;;;;;-146.25;100.00;52656.13;2080703;28;34300;-78
2023/12/15 02:33:01;;;;;;;61.47;26.77;;;;;;;-146.25;100.00;52684.50;2080669;28;37561;-78
2023/12/15 02:34:02;;;;;;;63.78;27.30;;;;;;;-146.25;100.00;52648.00;2081568;28;20160;-77
2023/12/15 02:35:04;;;;;;;69.60;28.15;;;;;;;-146.25;100.00;52674.38;2080548;28;37998;-77
2023/12/15 02:36:07;;;;;;;63.53;27.17;;;;;;;-146.25;100.00;52676.41;2080345;28;32297;-77
2023/12/15 02:37:09;;;;;;;64.80;26.77;;;;;;;-146.25;100.00;52672.34;2080433;28;20123;-78
2023/12/15 02:38:10;;;;;;;68.82;28.38;;;;;;;-146.25;100.00;52733.19;2080907;28;34415;-78
2023/12/15 02:39:14;;;;;;;67.90;27.33;;;;;;;-146.25;100.00;52666.25;2080407;28;34930;-76
2023/12/15 02:40:16;;;;;;;62.83;27.02;;;;;;;-146.25;100.00;52692.63;2081380;28;20074;-78
2023/12/15 02:41:21;;;;;;;66.07;28.08;;;;;;;-146.25;100.00;52698.72;2080012;28;40916;-78
2023/12/15 02:42:22;;;;;;;68.75;28.60;;;;;;;-146.25;100.00;52670.31;2080545;28;35177;-77
2023/12/15 02:43:24;;;;;;;68.55;30.27;;;;;;;-146.25;100.00;52694.66;2081188;28;20046;-76
2023/12/15 02:44:26;;;;;;;70.47;27.88;;;;;;;-146.25;100.00;52684.50;2080458;28;41130;-76
2023/12/15 02:45:28;;;;;;;63.55;27.27;;;;;;;-146.25;100.00;52688.56;2080409;28;35243;-77
2023/12/15 02:46:30;;;;;;;66.53;27.65;;;;;;;-146.25;100.00;52680.47;2081576;28;20143;-78
2023/12/15 02:47:31;;;;;;;68.85;27.90;;;;;;;-146.25;100.00;52672.34;2080636;28;34622;-77
2023/12/15 02:48:34;;;;;;;65.10;28.40;;;;;;;-146.25;100.00;52668.28;2080357;28;33704;-78
2023/12/15 02:49:41;;;;;;;63.47;27.35;;;;;;;-146.25;100.00;52741.28;2080971;28;20033;-77
2023/12/15 02:50:43;;;;;;;69.22;29.00;;;;;;;-146.25;100.00;52684.50;2072047;28;34445;-77
2023/12/15 02:51:44;;;;;;;67.85;28.63;;;;;;;-146.25;100.00;52698.72;2071930;28;34893;-77
2023/12/15 02:52:47;;;;;;;66.15;28.80;;;;;;;-146.25;100.00;52639.91;2081419;28;20873;-76
2023/12/15 02:53:49;;;;;;;67.72;27.95;;;;;;;-146.25;100.00;52700.72;2079807;28;39427;-77
2023/12/15 02:54:50;;;;;;;75.93;30.33;;;;;;;-146.25;100.00;52686.53;2080579;28;37664;-78
2023/12/15 02:55:52;;;;;;;63.58;27.83;;;;;;;-146.25;100.00;52688.56;2080565;28;33553;-77
2023/12/15 02:56:56;;;;;;;75.50;29.55;;;;;;;-146.25;100.00;52688.56;2080957;28;20038;-77
2023/12/15 02:58:00;;;;;;;67.00;28.02;;;;;;;-146.25;100.00;52672.34;2080934;28;20050;-78
2023/12/15 02:59:03;;;;;;;65.80;27.48;;;;;;;-146.25;100.00;52652.06;2081301;28;20042;-77
2023/12/15 03:00:06;;;;;;;67.07;28.30;;;;;;;-146.25;100.00;52692.63;2080326;28;38901;-78
2023/12/15 03:01:08;;;;;;;66.57;29.08;;;;;;;-146.25;100.00;52658.16;2086734;28;37009;-77
2023/12/15 03:02:10;;;;;;;70.28;28.95;;;;;;;-146.25;100.00;52658.16;2088805;28;32734;-77
2023/12/15 03:03:12;;;;;;;65.97;28.17;;;;;;;-146.25;100.00;52676.41;2088822;28;38117;-76
2023/12/15 03:04:14;;;;;;;69.20;29.00;;;;;;;-146.25;100.00;52643.97;2089286;28;20923;-77
2023/12/15 03:05:16;;;;;;;69.10;28.33;;;;;;;-146.25;100.00;52692.63;2088839;28;39593;-75
2023/12/15 03:06:21;;;;;;;68.57;29.38;;;;;;;-146.25;100.00;52666.25;2088750;28;34507;-77
2023/12/15 03:07:24;;;;;;;63.88;28.60;;;;;;;-146.25;100.00;52623.69;2089215;28;20083;-77
2023/12/15 03:08:28;;;;;;;70.80;29.23;;;;;;;-146.25;100.00;52668.28;2088681;28;36531;-78
2023/12/15 03:09:30;;;;;;;71.75;29.15;;;;;;;-146.25;100.00;52662.22;2088662;28;38427;-78
2023/12/15 03:10:32;;;;;;;66.40;29.02;;;;;;;-146.25;100.00;52660.19;2089127;28;20080;-78
2023/12/15 03:11:37;;;;;;;74.68;29.88;;;;;;;-146.25;100.00;52690.59;2088487;28;35617;-77
2023/12/15 03:12:41;;;;;;;67.22;29.30;;;;;;;-146.25;100.00;52700.72;2088449;28;35588;-78
2023/12/15 03:13:42;;;;;;;69.95;28.50;;;;;;;-146.25;100.00;52694.66;2089095;28;20095;-77
2023/12/15 03:14:44;;;;;;;71.05;29.77;;;;;;;-146.25;100.00;52684.50;2088464;28;36088;-76
2023/12/15 03:15:46;;;;;;;76.78;28.85;;;;;;;-146.25;100.00;52660.19;2088654;28;35639;-76
2023/12/15 03:16:48;;;;;;;75.72;30.83;;;;;;;-146.25;100.00;52700.72;2088990;28;20045;-78
2023/12/15 03:17:52;;;;;;;73.85;31.48;;;;;;;-146.25;100.00;52676.41;2089297;28;36742;-77
2023/12/15 03:18:54;;;;;;;76.30;30.13;;;;;;;-146.25;100.00;52680.47;2088016;28;34635;-78
2023/12/15 03:19:56;;;;;;;69.07;30.08;;;;;;;-146.25;100.00;52694.66;2088823;28;34924;-78
2023/12/15 03:20:59;;;;;;;74.10;30.95;;;;;;;-146.25;100.00;52692.63;2088092;28;38260;-77
2023/12/15 03:22:01;;;;;;;70.47;30.02;;;;;;;-146.25;100.00;52676.41;2089234;28;20049;-77
2023/12/15 03:23:03;;;;;;;68.15;29.38;;;;;;;-146.25;100.00;52696.69;2077968;28;37127;-78
2023/12/15 03:24:07;;;;;;;78.43;31.35;;;;;;;-146.25;100.00;52692.63;2071917;28;34754;-76
2023/12/15 03:25:09;;;;;;;75.68;30.88;;;;;;;-146.25;100.00;52670.31;2080397;28;31708;-77
2023/12/15 03:26:11;;;;;;;68.65;29.00;;;;;;;-146.25;100.00;52658.16;2080147;28;35857;-76
2023/12/15 03:27:13;;;;;;;79.50;31.52;;;;;;;-146.25;100.00;52652.06;2080095;28;36357;-77
2023/12/15 03:28:15;;;;;;;74.32;29.73;;;;;;;-146.25;100.00;52668.28;2080573;28;32389;-77
2023/12/15 03:29:17;;;;;;;76.63;31.58;;;;;;;-146.25;100.00;52672.34;2079799;28;39131;-77
2023/12/15 03:30:19;;;;;;;79.47;30.60;;;;;;;-146.25;100.00;52680.47;2080721;28;20807;-77
2023/12/15 03:31:21;;;;;;;70.80;30.63;;;;;;;-146.25;100.00;52629.75;2079770;28;36788;-77
2023/12/15 03:32:23;;;;;;;78.18;32.08;;;;;;;-146.25;100.00;52676.41;2080759;28;35740;-77
2023/12/15 03:33:27;;;;;;;76.97;31.75;;;;;;;-146.25;100.00;52674.38;2080305;28;34458;-75
2023/12/15 03:34:29;;;;;;;77.93;31.83;;;;;;;-146.25;100.00;52662.22;2079701;28;37733;-77
2023/12/15 03:35:31;;;;;;;85.00;32.40;;;;;;;-146.25;100.00;52658.16;2080370;28;32259;-77
2023/12/15 03:36:38;;;;;;;73.03;30.38;;;;;;;-146.25;100.00;52668.28;2080404;28;34440;-77
2023/12/15 03:37:40;;;;;;;71.72;30.00;;;;;;;-146.25;100.00;52652.06;2080866;28;36797;-77
2023/12/15 03:38:42;;;;;;;76.90;30.40;;;;;;;-146.25;100.00;52684.50;2081032;28;20058;-77
2023/12/15 03:39:43;;;;;;;76.22;31.60;;;;;;;-146.25;100.00;52676.41;2080154;28;39308;-78
2023/12/15 03:40:47;;;;;;;84.28;32.90;;;;;;;-146.25;100.00;52650.03;2072619;28;20082;-78
2023/12/15 03:41:49;;;;;;;79.55;31.63;;;;;;;-146.25;100.00;52682.47;2071893;28;35114;-78
2023/12/15 03:42:51;;;;;;;78.28;30.30;;;;;;;-146.25;100.00;52696.69;2080226;28;36566;-76
2023/12/15 03:43:53;;;;;;;73.07;30.80;;;;;;;-146.25;100.00;52700.72;2080306;28;32556;-78
2023/12/15 03:44:55;;;;;;;84.25;32.35;;;;;;;-146.25;100.00;52686.53;2080666;28;33068;-77
2023/12/15 03:45:56;;;;;;;85.85;30.85;;;;;;;-146.25;100.00;52688.56;2080161;28;36586;-77
2023/12/15 03:46:59;;;;;;;81.75;30.27;;;;;;;-146.25;100.00;52670.31;2080154;28;36191;-77
2023/12/15 03:48:02;;;;;;;92.25;33.67;;;;;;;-146.25;100.00;52672.34;2080217;28;36883;-77
2023/12/15 03:49:04;;;;;;;82.20;33.70;;;;;;;-146.25;100.00;52686.53;2080322;28;35395;-76
2023/12/15 03:50:08;;;;;;;81.68;30.90;;;;;;;-146.25;100.00;52670.31;2080211;28;32567;-77
2023/12/15 03:51:10;;;;;;;81.55;32.60;;;;;;;-146.25;100.00;52680.47;2080313;28;35313;-77
2023/12/15 03:52:12;;;;;;;90.93;33.67;;;;;;;-146.25;100.00;52682.47;2079938;28;36913;-78
2023/12/15 03:53:16;;;;;;;85.88;32.83;;;;;;;-146.25;100.00;52660.19;2079689;28;39127;-77
2023/12/15 03:54:18;;;;;;;95.50;33.13;;;;;;;-146.25;100.00;52652.06;2080364;28;20104;-78
2023/12/15 03:55:21;;;;;;;86.35;33.03;;;;;;;-146.25;100.00;52660.19;2080365;28;37144;-78
2023/12/15 03:56:27;;;;;;;91.50;33.70;;;;;;;-146.25;100.00;52682.47;2087891;28;38715;-77
2023/12/15 03:57:29;;;;;;;84.88;33.40;;;;;;;-146.25;100.00;52654.09;2079038;28;35942;-77
2023/12/15 03:58:30;;;;;;;87.20;34.22;;;;;;;-146.25;100.00;52684.50;2080003;28;38683;-76
2023/12/15 03:59:32;;;;;;;88.13;32.83;;;;;;;-146.25;100.00;52656.13;2088283;28;31570;-78
2023/12/15 04:00:34;;;;;;;90.35;33.53;;;;;;;-146.25;100.00;52680.47;2087756;28;35809;-78
2023/12/15 04:01:36;;;;;;;85.82;33.35;;;;;;;-146.25;100.00;52690.59;2088705;28;38796;-78
2023/12/15 04:02:37;;;;;;;95.47;34.50;;;;;;;-146.25;100.00;52684.50;2089334;28;20042;-77
2023/12/15 04:03:39;;;;;;;77.82;30.13;;;;;;;-146.25;100.00;52654.09;2088223;28;33893;-77
2023/12/15 04:04:44;;;;;;;94.90;34.75;;;;;;;-146.25;100.00;52684.50;2088122;28;36340;-77
2023/12/15 04:05:45;;;;;;;92.88;34.30;;;;;;;-146.25;100.00;52708.84;2088395;28;36131;-76
2023/12/15 04:06:49;;;;;;;91.65;34.45;;;;;;;-146.25;100.00;52721.00;2088926;28;20156;-78
2023/12/15 04:07:53;;;;;;;90.03;34.35;;;;;;;-146.25;100.00;52704.78;2088134;28;34531;-76
2023/12/15 04:08:55;;;;;;;98.13;34.63;;;;;;;-146.25;100.00;52708.84;2088097;28;34630;-78
2023/12/15 04:09:57;;;;;;;91.93;33.97;;;;;;;-146.25;100.00;52678.44;2088286;28;38069;-77
2023/12/15 04:10:59;;;;;;;96.72;34.78;;;;;;;-146.25;100.00;52678.44;2089081;28;20890;-77
2023/12/15 04:12:00;;;;;;;100.18;34.38;;;;;;;-146.25;100.00;52660.19;2088263;28;37215;-77
2023/12/15 04:13:02;;;;;;;94.45;35.42;;;;;;;-146.25;100.00;52652.06;2087863;28;31292;-78
2023/12/15 04:14:05;;;;;;;95.45;34.58;;;;;;;-146.25;100.00;52688.56;2088181;28;32097;-77
2023/12/15 04:15:08;;;;;;;86.78;33.03;;;;;;;-146.25;100.00;52682.47;2088057;28;38298;-78
2023/12/15 04:16:10;;;;;;;94.95;34.92;;;;;;;-146.25;100.00;52660.19;2088417;28;35731;-77
2023/12/15 04:17:14;;;;;;;89.05;33.33;;;;;;;-146.25;100.00;52688.56;2087928;28;35214;-77
2023/12/15 04:18:16;;;;;;;96.68;36.05;;;;;;;-146.25;100.00;52706.81;2089132;28;20837;-77
2023/12/15 04:19:18;;;;;;;99.40;34.30;;;;;;;-146.25;100.00;52684.50;2087897;28;34440;-77
2023/12/15 04:20:20;;;;;;;93.00;34.55;;;;;;;-146.25;100.00;52721.00;2088526;28;35758;-78
2023/12/15 04:21:22;;;;;;;94.00;34.67;;;;;;;-146.25;100.00;52696.69;2088039;28;33537;-77
2023/12/15 04:22:24;;;;;;;95.18;34.28;;;;;;;-146.25;100.00;52662.22;2088061;28;39711;-75
2023/12/15 04:23:27;;;;;;;91.88;33.83;;;;;;;-146.25;100.00;52676.41;2088272;28;33181;-77
2023/12/15 04:24:31;;;;;;;94.90;34.50;;;;;;;-146.25;100.00;52729.13;2089403;28;20045;-77
2023/12/15 04:25:32;;;;;;;90.35;34.22;;;;;;;-146.25;100.00;52668.28;2082505;28;38325;-77
2023/12/15 04:26:34;;;;;;;93.00;33.85;;;;;;;-146.25;100.00;52670.31;2080874;28;20038;-77
2023/12/15 04:27:36;;;;;;;95.38;34.92;;;;;;;-146.25;100.00;52716.97;2079871;28;37583;-77
2023/12/15 04:28:40;;;;;;;101.82;35.40;;;;;;;-146.25;100.00;52684.50;2079943;28;36354;-77
2023/12/15 04:29:42;;;;;;;103.22;34.15;;;;;;;-146.25;100.00;52672.34;2079790;28;35970;-78
2023/12/15 04:30:47;;;;;;;96.60;34.53;;;;;;;-146.25;100.00;52700.72;2080766;28;20038;-75
2023/12/15 04:31:49;;;;;;;102.95;34.67;;;;;;;-146.25;100.00;52696.69;2079703;28;35303;-77
2023/12/15 04:32:53;;;;;;;95.57;33.78;;;;;;;-146.25;100.00;52696.69;2080049;28;35906;-77
2023/12/15 04:33:55;;;;;;;94.40;32.72;;;;;;;-146.25;100.00;52637.88;2080611;28;20041;-78
2023/12/15 04:34:57;;;;;;;101.38;36.67;;;;;;;-146.25;100.00;52684.50;2079682;28;35026;-77
2023/12/15 04:36:02;;;;;;;112.40;35.70;;;;;;;-146.25;100.00;52672.34;2080401;28;20068;-78
2023/12/15 04:37:04;;;;;;;100.60;34.22;;;;;;;-146.25;100.00;52666.25;2079935;28;35211;-77
2023/12/15 04:38:06;;;;;;;110.65;36.17;;;;;;;-146.25;100.00;52645.97;2079767;28;35625;-77